sensor_id;sensor_type;location;lat;lon;timestamp;P1;durP1;ratioP1;P2;durP2;ratioP2
16272;SDS011;8244;50.044;9.006;2023-05-02T00:00:44;6.35;;;4.25;;
16272;SDS011;8244;50.044;9.006;2023-05-02T00:05:46;6.22;;;3.90;;
16272;SDS011;8244;50.044;9.006;2023-05-02T00:10:49;6.20;;;4.10;;
16272;SDS011;8244;50.044;9.006;2023-05-02T00:15:51;5.25;;;4.00;;
16272;SDS011;8244;50.044;9.006;2023-05-02T00:20:54;7.80;;;4.90;;
16272;SDS011;8244;50.044;9.006;2023-05-02T00:25:57;7.80;;;4.80;;
16272;SDS011;8244;50.044;9.006;2023-05-02T00:30:58;8.38;;;4.40;;
16272;SDS011;8244;50.044;9.006;2023-05-02T00:36:00;7.90;;;5.10;;
16272;SDS011;8244;50.044;9.006;2023-05-02T00:41:03;5.55;;;3.83;;
16272;SDS011;8244;50.044;9.006;2023-05-02T00:46:05;8.13;;;4.75;;
16272;SDS011;8244;50.044;9.006;2023-05-02T00:51:07;7.07;;;4.55;;
16272;SDS011;8244;50.044;9.006;2023-05-02T00:56:12;6.60;;;4.82;;
16272;SDS011;8244;50.044;9.006;2023-05-02T01:01:17;7.03;;;4.60;;
16272;SDS011;8244;50.044;9.006;2023-05-02T01:06:32;6.97;;;4.78;;
16272;SDS011;8244;50.044;9.006;2023-05-02T01:11:55;10.40;;;5.43;;
16272;SDS011;8244;50.044;9.006;2023-05-02T01:17:02;10.15;;;5.93;;
16272;SDS011;8244;50.044;9.006;2023-05-02T01:22:08;12.13;;;6.93;;
16272;SDS011;8244;50.044;9.006;2023-05-02T01:27:17;9.32;;;6.32;;
16272;SDS011;8244;50.044;9.006;2023-05-02T01:32:26;11.63;;;7.30;;
16272;SDS011;8244;50.044;9.006;2023-05-02T01:37:29;13.18;;;7.55;;
16272;SDS011;8244;50.044;9.006;2023-05-02T01:42:34;9.52;;;7.13;;
16272;SDS011;8244;50.044;9.006;2023-05-02T01:47:39;11.02;;;7.50;;
16272;SDS011;8244;50.044;9.006;2023-05-02T01:52:43;11.27;;;7.55;;
16272;SDS011;8244;50.044;9.006;2023-05-02T01:57:47;10.93;;;7.90;;
16272;SDS011;8244;50.044;9.006;2023-05-02T02:02:51;13.05;;;8.60;;
16272;SDS011;8244;50.044;9.006;2023-05-02T02:07:55;9.77;;;6.68;;
16272;SDS011;8244;50.044;9.006;2023-05-02T02:12:58;8.63;;;6.25;;
16272;SDS011;8244;50.044;9.006;2023-05-02T02:18:08;9.50;;;6.28;;
16272;SDS011;8244;50.044;9.006;2023-05-02T02:23:11;8.85;;;6.40;;
16272;SDS011;8244;50.044;9.006;2023-05-02T02:28:15;9.43;;;6.53;;
16272;SDS011;8244;50.044;9.006;2023-05-02T02:33:18;9.98;;;6.22;;
16272;SDS011;8244;50.044;9.006;2023-05-02T02:38:22;8.60;;;6.20;;
16272;SDS011;8244;50.044;9.006;2023-05-02T02:43:32;10.90;;;6.35;;
16272;SDS011;8244;50.044;9.006;2023-05-02T02:48:44;7.88;;;5.35;;
16272;SDS011;8244;50.044;9.006;2023-05-02T02:53:51;9.48;;;7.07;;
16272;SDS011;8244;50.044;9.006;2023-05-02T02:59:02;9.82;;;7.25;;
16272;SDS011;8244;50.044;9.006;2023-05-02T03:04:07;8.70;;;6.10;;
16272;SDS011;8244;50.044;9.006;2023-05-02T03:09:15;9.10;;;6.25;;
16272;SDS011;8244;50.044;9.006;2023-05-02T03:14:17;9.85;;;5.85;;
16272;SDS011;8244;50.044;9.006;2023-05-02T03:19:20;9.27;;;5.63;;
16272;SDS011;8244;50.044;9.006;2023-05-02T03:24:22;8.60;;;6.07;;
16272;SDS011;8244;50.044;9.006;2023-05-02T03:29:24;8.15;;;5.95;;
16272;SDS011;8244;50.044;9.006;2023-05-02T03:34:29;8.40;;;5.80;;
16272;SDS011;8244;50.044;9.006;2023-05-02T03:39:30;10.10;;;6.13;;
16272;SDS011;8244;50.044;9.006;2023-05-02T03:44:32;8.50;;;5.32;;
16272;SDS011;8244;50.044;9.006;2023-05-02T03:49:35;9.70;;;6.95;;
16272;SDS011;8244;50.044;9.006;2023-05-02T03:54:37;8.82;;;5.68;;
16272;SDS011;8244;50.044;9.006;2023-05-02T03:59:38;9.35;;;6.90;;
16272;SDS011;8244;50.044;9.006;2023-05-02T04:04:43;13.73;;;7.50;;
16272;SDS011;8244;50.044;9.006;2023-05-02T04:09:45;10.90;;;6.30;;
16272;SDS011;8244;50.044;9.006;2023-05-02T04:14:46;8.73;;;6.03;;
16272;SDS011;8244;50.044;9.006;2023-05-02T04:19:49;11.55;;;6.72;;
16272;SDS011;8244;50.044;9.006;2023-05-02T04:24:51;11.65;;;7.13;;
16272;SDS011;8244;50.044;9.006;2023-05-02T04:29:53;10.90;;;6.93;;
16272;SDS011;8244;50.044;9.006;2023-05-02T04:34:57;9.50;;;6.93;;
16272;SDS011;8244;50.044;9.006;2023-05-02T04:39:59;12.02;;;7.47;;
16272;SDS011;8244;50.044;9.006;2023-05-02T04:45:01;10.90;;;6.82;;
16272;SDS011;8244;50.044;9.006;2023-05-02T04:50:04;11.18;;;6.75;;
16272;SDS011;8244;50.044;9.006;2023-05-02T04:55:07;12.63;;;6.60;;
16272;SDS011;8244;50.044;9.006;2023-05-02T05:00:10;14.38;;;7.65;;
16272;SDS011;8244;50.044;9.006;2023-05-02T05:05:13;10.40;;;7.43;;
16272;SDS011;8244;50.044;9.006;2023-05-02T05:10:15;12.13;;;8.27;;
16272;SDS011;8244;50.044;9.006;2023-05-02T05:15:17;15.77;;;8.65;;
16272;SDS011;8244;50.044;9.006;2023-05-02T05:20:20;14.23;;;9.10;;
16272;SDS011;8244;50.044;9.006;2023-05-02T05:25:22;11.48;;;7.82;;
16272;SDS011;8244;50.044;9.006;2023-05-02T05:30:25;13.15;;;8.82;;
16272;SDS011;8244;50.044;9.006;2023-05-02T05:35:28;14.93;;;10.88;;
16272;SDS011;8244;50.044;9.006;2023-05-02T05:40:31;17.00;;;13.32;;
16272;SDS011;8244;50.044;9.006;2023-05-02T05:45:32;19.10;;;14.07;;
16272;SDS011;8244;50.044;9.006;2023-05-02T05:50:35;20.80;;;13.30;;
16272;SDS011;8244;50.044;9.006;2023-05-02T05:55:37;21.20;;;15.40;;
16272;SDS011;8244;50.044;9.006;2023-05-02T06:00:39;28.98;;;19.23;;
16272;SDS011;8244;50.044;9.006;2023-05-02T06:05:42;27.15;;;20.73;;
16272;SDS011;8244;50.044;9.006;2023-05-02T06:10:43;29.70;;;22.17;;
16272;SDS011;8244;50.044;9.006;2023-05-02T06:15:45;26.65;;;20.92;;
16272;SDS011;8244;50.044;9.006;2023-05-02T06:20:48;29.52;;;22.25;;
16272;SDS011;8244;50.044;9.006;2023-05-02T06:25:50;28.60;;;20.48;;
16272;SDS011;8244;50.044;9.006;2023-05-02T06:30:55;23.88;;;18.63;;
16272;SDS011;8244;50.044;9.006;2023-05-02T06:35:59;23.52;;;17.70;;
16272;SDS011;8244;50.044;9.006;2023-05-02T06:41:01;21.02;;;15.30;;
16272;SDS011;8244;50.044;9.006;2023-05-02T06:46:02;20.27;;;15.40;;
16272;SDS011;8244;50.044;9.006;2023-05-02T06:51:06;20.58;;;15.68;;
16272;SDS011;8244;50.044;9.006;2023-05-02T06:56:07;19.02;;;14.75;;
16272;SDS011;8244;50.044;9.006;2023-05-02T07:01:09;20.15;;;14.75;;
16272;SDS011;8244;50.044;9.006;2023-05-02T07:06:13;19.05;;;14.88;;
16272;SDS011;8244;50.044;9.006;2023-05-02T07:11:15;16.95;;;13.20;;
16272;SDS011;8244;50.044;9.006;2023-05-02T07:16:17;18.55;;;14.48;;
16272;SDS011;8244;50.044;9.006;2023-05-02T07:21:20;20.63;;;14.52;;
16272;SDS011;8244;50.044;9.006;2023-05-02T07:26:21;18.70;;;13.73;;
16272;SDS011;8244;50.044;9.006;2023-05-02T07:31:24;19.48;;;15.00;;
16272;SDS011;8244;50.044;9.006;2023-05-02T07:36:27;17.67;;;13.73;;
16272;SDS011;8244;50.044;9.006;2023-05-02T07:41:28;18.30;;;13.18;;
16272;SDS011;8244;50.044;9.006;2023-05-02T07:46:30;17.05;;;13.07;;
16272;SDS011;8244;50.044;9.006;2023-05-02T07:51:33;19.15;;;13.98;;
16272;SDS011;8244;50.044;9.006;2023-05-02T07:56:35;16.95;;;13.20;;
16272;SDS011;8244;50.044;9.006;2023-05-02T08:01:36;20.50;;;13.98;;
16272;SDS011;8244;50.044;9.006;2023-05-02T08:06:40;17.95;;;14.48;;
16272;SDS011;8244;50.044;9.006;2023-05-02T08:11:41;17.98;;;13.38;;
16272;SDS011;8244;50.044;9.006;2023-05-02T08:16:43;17.05;;;12.45;;
16272;SDS011;8244;50.044;9.006;2023-05-02T08:21:46;16.95;;;11.93;;
16272;SDS011;8244;50.044;9.006;2023-05-02T08:26:48;17.77;;;12.52;;
16272;SDS011;8244;50.044;9.006;2023-05-02T08:31:49;20.40;;;14.25;;
16272;SDS011;8244;50.044;9.006;2023-05-02T08:36:52;17.27;;;12.70;;
16272;SDS011;8244;50.044;9.006;2023-05-02T08:41:54;16.65;;;12.07;;
16272;SDS011;8244;50.044;9.006;2023-05-02T08:46:56;18.15;;;13.38;;
16272;SDS011;8244;50.044;9.006;2023-05-02T08:52:01;17.33;;;13.10;;
16272;SDS011;8244;50.044;9.006;2023-05-02T08:57:05;18.52;;;13.52;;
16272;SDS011;8244;50.044;9.006;2023-05-02T09:02:09;19.42;;;13.82;;
16272;SDS011;8244;50.044;9.006;2023-05-02T09:07:19;16.23;;;12.18;;
16272;SDS011;8244;50.044;9.006;2023-05-02T09:12:23;16.27;;;11.57;;
16272;SDS011;8244;50.044;9.006;2023-05-02T09:17:26;15.98;;;10.77;;
16272;SDS011;8244;50.044;9.006;2023-05-02T09:22:40;16.25;;;11.18;;
16272;SDS011;8244;50.044;9.006;2023-05-02T09:27:50;14.13;;;10.57;;
16272;SDS011;8244;50.044;9.006;2023-05-02T09:32:53;14.88;;;10.43;;
16272;SDS011;8244;50.044;9.006;2023-05-02T09:37:56;14.60;;;10.60;;
16272;SDS011;8244;50.044;9.006;2023-05-02T09:42:58;14.48;;;10.02;;
16272;SDS011;8244;50.044;9.006;2023-05-02T09:48:13;14.50;;;9.13;;
16272;SDS011;8244;50.044;9.006;2023-05-02T09:53:16;19.08;;;9.35;;
16272;SDS011;8244;50.044;9.006;2023-05-02T09:58:22;15.57;;;9.57;;
16272;SDS011;8244;50.044;9.006;2023-05-02T10:03:25;14.27;;;8.80;;
16272;SDS011;8244;50.044;9.006;2023-05-02T10:08:29;13.95;;;9.40;;
16272;SDS011;8244;50.044;9.006;2023-05-02T10:13:33;12.48;;;8.05;;
16272;SDS011;8244;50.044;9.006;2023-05-02T10:18:40;11.10;;;8.00;;
16272;SDS011;8244;50.044;9.006;2023-05-02T10:23:46;10.57;;;7.55;;
16272;SDS011;8244;50.044;9.006;2023-05-02T10:28:48;11.35;;;6.35;;
16272;SDS011;8244;50.044;9.006;2023-05-02T10:33:51;9.32;;;6.00;;
16272;SDS011;8244;50.044;9.006;2023-05-02T10:38:54;10.05;;;6.43;;
16272;SDS011;8244;50.044;9.006;2023-05-02T10:43:56;8.65;;;5.18;;
16272;SDS011;8244;50.044;9.006;2023-05-02T10:48:59;8.32;;;5.38;;
16272;SDS011;8244;50.044;9.006;2023-05-02T10:54:19;7.32;;;4.85;;
16272;SDS011;8244;50.044;9.006;2023-05-02T10:59:25;7.95;;;5.00;;
16272;SDS011;8244;50.044;9.006;2023-05-02T11:10:24;10.60;;;6.80;;
16272;SDS011;8244;50.044;9.006;2023-05-02T11:21:23;11.55;;;8.30;;
16272;SDS011;8244;50.044;9.006;2023-05-02T11:26:27;12.15;;;8.23;;
16272;SDS011;8244;50.044;9.006;2023-05-02T11:37:09;11.30;;;7.72;;
16272;SDS011;8244;50.044;9.006;2023-05-02T11:47:40;11.82;;;7.70;;
16272;SDS011;8244;50.044;9.006;2023-05-02T11:52:42;12.98;;;8.70;;
16272;SDS011;8244;50.044;9.006;2023-05-02T11:57:45;12.65;;;7.65;;
16272;SDS011;8244;50.044;9.006;2023-05-02T12:02:48;8.95;;;6.03;;
16272;SDS011;8244;50.044;9.006;2023-05-02T12:07:49;9.43;;;5.70;;
16272;SDS011;8244;50.044;9.006;2023-05-02T12:12:51;8.75;;;4.60;;
16272;SDS011;8244;50.044;9.006;2023-05-02T12:18:07;7.25;;;4.43;;
16272;SDS011;8244;50.044;9.006;2023-05-02T12:23:09;7.88;;;5.07;;
16272;SDS011;8244;50.044;9.006;2023-05-02T12:28:11;7.65;;;4.85;;
16272;SDS011;8244;50.044;9.006;2023-05-02T12:33:14;6.47;;;4.00;;
16272;SDS011;8244;50.044;9.006;2023-05-02T12:38:18;7.50;;;4.38;;
16272;SDS011;8244;50.044;9.006;2023-05-02T12:43:21;6.60;;;4.38;;
16272;SDS011;8244;50.044;9.006;2023-05-02T12:48:25;6.72;;;4.63;;
16272;SDS011;8244;50.044;9.006;2023-05-02T12:53:37;7.53;;;3.75;;
16272;SDS011;8244;50.044;9.006;2023-05-02T12:58:40;3.75;;;3.03;;
16272;SDS011;8244;50.044;9.006;2023-05-02T13:03:44;3.10;;;2.80;;
16272;SDS011;8244;50.044;9.006;2023-05-02T13:08:46;4.07;;;2.80;;
16272;SDS011;8244;50.044;9.006;2023-05-02T13:13:48;6.18;;;2.70;;
16272;SDS011;8244;50.044;9.006;2023-05-02T13:18:51;3.55;;;2.58;;
16272;SDS011;8244;50.044;9.006;2023-05-02T13:23:53;3.38;;;2.22;;
16272;SDS011;8244;50.044;9.006;2023-05-02T13:28:55;3.83;;;2.10;;
16272;SDS011;8244;50.044;9.006;2023-05-02T13:34:00;2.63;;;2.42;;
16272;SDS011;8244;50.044;9.006;2023-05-02T13:39:01;5.38;;;2.58;;
16272;SDS011;8244;50.044;9.006;2023-05-02T13:44:03;3.33;;;2.60;;
16272;SDS011;8244;50.044;9.006;2023-05-02T13:49:06;3.90;;;2.42;;
16272;SDS011;8244;50.044;9.006;2023-05-02T13:54:08;3.25;;;2.00;;
16272;SDS011;8244;50.044;9.006;2023-05-02T13:59:09;5.78;;;1.70;;
16272;SDS011;8244;50.044;9.006;2023-05-02T14:04:13;3.17;;;2.13;;
16272;SDS011;8244;50.044;9.006;2023-05-02T14:09:14;3.28;;;1.95;;
16272;SDS011;8244;50.044;9.006;2023-05-02T14:14:16;3.15;;;2.00;;
16272;SDS011;8244;50.044;9.006;2023-05-02T14:19:19;3.25;;;2.22;;
16272;SDS011;8244;50.044;9.006;2023-05-02T14:24:21;2.95;;;2.20;;
16272;SDS011;8244;50.044;9.006;2023-05-02T14:29:22;3.97;;;2.20;;
16272;SDS011;8244;50.044;9.006;2023-05-02T14:34:25;5.10;;;2.50;;
16272;SDS011;8244;50.044;9.006;2023-05-02T14:39:27;4.18;;;2.35;;
16272;SDS011;8244;50.044;9.006;2023-05-02T14:44:28;3.05;;;2.10;;
16272;SDS011;8244;50.044;9.006;2023-05-02T14:49:31;4.40;;;2.08;;
16272;SDS011;8244;50.044;9.006;2023-05-02T14:54:33;4.85;;;2.17;;
16272;SDS011;8244;50.044;9.006;2023-05-02T14:59:35;4.43;;;2.38;;
16272;SDS011;8244;50.044;9.006;2023-05-02T15:04:39;3.30;;;2.10;;
16272;SDS011;8244;50.044;9.006;2023-05-02T15:09:40;3.70;;;2.53;;
16272;SDS011;8244;50.044;9.006;2023-05-02T15:14:42;5.10;;;2.40;;
16272;SDS011;8244;50.044;9.006;2023-05-02T15:19:45;3.95;;;2.50;;
16272;SDS011;8244;50.044;9.006;2023-05-02T15:24:46;4.53;;;2.80;;
16272;SDS011;8244;50.044;9.006;2023-05-02T15:29:48;3.72;;;2.45;;
16272;SDS011;8244;50.044;9.006;2023-05-02T15:34:51;4.40;;;2.83;;
16272;SDS011;8244;50.044;9.006;2023-05-02T15:39:53;3.60;;;2.65;;
16272;SDS011;8244;50.044;9.006;2023-05-02T15:44:54;4.63;;;2.88;;
16272;SDS011;8244;50.044;9.006;2023-05-02T15:49:57;5.60;;;3.13;;
16272;SDS011;8244;50.044;9.006;2023-05-02T15:54:59;4.63;;;3.30;;
16272;SDS011;8244;50.044;9.006;2023-05-02T16:00:01;5.82;;;3.60;;
16272;SDS011;8244;50.044;9.006;2023-05-02T16:05:05;7.32;;;3.97;;
16272;SDS011;8244;50.044;9.006;2023-05-02T16:10:08;5.10;;;3.92;;
16272;SDS011;8244;50.044;9.006;2023-05-02T16:15:10;8.43;;;4.10;;
16272;SDS011;8244;50.044;9.006;2023-05-02T16:20:13;7.65;;;3.53;;
16272;SDS011;8244;50.044;9.006;2023-05-02T16:25:15;5.93;;;3.40;;
16272;SDS011;8244;50.044;9.006;2023-05-02T16:30:17;3.53;;;1.98;;
16272;SDS011;8244;50.044;9.006;2023-05-02T16:35:20;4.22;;;2.30;;
16272;SDS011;8244;50.044;9.006;2023-05-02T16:40:22;3.90;;;2.17;;
16272;SDS011;8244;50.044;9.006;2023-05-02T16:45:24;3.05;;;2.28;;
16272;SDS011;8244;50.044;9.006;2023-05-02T16:50:27;4.20;;;2.17;;
16272;SDS011;8244;50.044;9.006;2023-05-02T16:55:28;4.50;;;2.35;;
16272;SDS011;8244;50.044;9.006;2023-05-02T17:00:30;4.15;;;2.50;;
16272;SDS011;8244;50.044;9.006;2023-05-02T17:05:34;3.45;;;2.20;;
16272;SDS011;8244;50.044;9.006;2023-05-02T17:10:36;4.07;;;2.72;;
16272;SDS011;8244;50.044;9.006;2023-05-02T17:15:37;5.00;;;2.63;;
16272;SDS011;8244;50.044;9.006;2023-05-02T17:20:41;4.15;;;2.40;;
16272;SDS011;8244;50.044;9.006;2023-05-02T17:25:44;6.32;;;2.78;;
16272;SDS011;8244;50.044;9.006;2023-05-02T17:30:46;5.15;;;2.78;;
16272;SDS011;8244;50.044;9.006;2023-05-02T17:35:54;5.00;;;2.72;;
16272;SDS011;8244;50.044;9.006;2023-05-02T17:40:56;8.85;;;3.40;;
16272;SDS011;8244;50.044;9.006;2023-05-02T17:45:58;4.25;;;3.00;;
16272;SDS011;8244;50.044;9.006;2023-05-02T17:51:01;6.75;;;3.65;;
16272;SDS011;8244;50.044;9.006;2023-05-02T17:56:03;6.25;;;3.50;;
16272;SDS011;8244;50.044;9.006;2023-05-02T18:01:05;3.95;;;2.92;;
16272;SDS011;8244;50.044;9.006;2023-05-02T18:06:13;4.68;;;3.00;;
16272;SDS011;8244;50.044;9.006;2023-05-02T18:11:15;8.25;;;3.80;;
16272;SDS011;8244;50.044;9.006;2023-05-02T18:16:18;5.47;;;3.28;;
16272;SDS011;8244;50.044;9.006;2023-05-02T18:21:21;7.35;;;3.42;;
16272;SDS011;8244;50.044;9.006;2023-05-02T18:26:24;6.00;;;3.65;;
16272;SDS011;8244;50.044;9.006;2023-05-02T18:31:26;6.55;;;3.78;;
16272;SDS011;8244;50.044;9.006;2023-05-02T18:36:29;7.63;;;4.20;;
16272;SDS011;8244;50.044;9.006;2023-05-02T18:41:31;6.25;;;3.50;;
16272;SDS011;8244;50.044;9.006;2023-05-02T18:46:32;7.63;;;3.67;;
16272;SDS011;8244;50.044;9.006;2023-05-02T18:51:35;7.07;;;3.70;;
16272;SDS011;8244;50.044;9.006;2023-05-02T18:56:37;8.25;;;3.97;;
16272;SDS011;8244;50.044;9.006;2023-05-02T19:01:39;6.13;;;3.80;;
16272;SDS011;8244;50.044;9.006;2023-05-02T19:06:42;6.95;;;3.75;;
16272;SDS011;8244;50.044;9.006;2023-05-02T19:11:44;9.52;;;4.10;;
16272;SDS011;8244;50.044;9.006;2023-05-02T19:16:45;5.63;;;3.45;;
16272;SDS011;8244;50.044;9.006;2023-05-02T19:21:48;5.72;;;3.63;;
16272;SDS011;8244;50.044;9.006;2023-05-02T19:26:52;7.45;;;3.90;;
16272;SDS011;8244;50.044;9.006;2023-05-02T19:31:54;5.80;;;3.67;;
16272;SDS011;8244;50.044;9.006;2023-05-02T19:36:57;7.47;;;4.03;;
16272;SDS011;8244;50.044;9.006;2023-05-02T19:41:58;8.07;;;4.20;;
16272;SDS011;8244;50.044;9.006;2023-05-02T19:47:02;7.05;;;4.18;;
16272;SDS011;8244;50.044;9.006;2023-05-02T19:52:05;8.57;;;5.05;;
16272;SDS011;8244;50.044;9.006;2023-05-02T19:57:07;7.80;;;4.43;;
16272;SDS011;8244;50.044;9.006;2023-05-02T20:02:09;10.55;;;4.00;;
16272;SDS011;8244;50.044;9.006;2023-05-02T20:07:12;7.93;;;4.30;;
16272;SDS011;8244;50.044;9.006;2023-05-02T20:12:13;8.48;;;4.20;;
16272;SDS011;8244;50.044;9.006;2023-05-02T20:17:15;6.03;;;3.92;;
16272;SDS011;8244;50.044;9.006;2023-05-02T20:22:18;8.38;;;4.32;;
16272;SDS011;8244;50.044;9.006;2023-05-02T20:27:19;7.18;;;3.72;;
16272;SDS011;8244;50.044;9.006;2023-05-02T20:32:21;9.65;;;3.90;;
16272;SDS011;8244;50.044;9.006;2023-05-02T20:37:24;10.80;;;4.90;;
16272;SDS011;8244;50.044;9.006;2023-05-02T20:42:26;8.13;;;4.65;;
16272;SDS011;8244;50.044;9.006;2023-05-02T20:47:28;9.52;;;4.88;;
16272;SDS011;8244;50.044;9.006;2023-05-02T20:52:32;9.48;;;4.90;;
16272;SDS011;8244;50.044;9.006;2023-05-02T20:57:34;9.32;;;4.75;;
16272;SDS011;8244;50.044;9.006;2023-05-02T21:02:35;9.80;;;5.00;;
16272;SDS011;8244;50.044;9.006;2023-05-02T21:07:38;9.82;;;4.97;;
16272;SDS011;8244;50.044;9.006;2023-05-02T21:12:40;8.60;;;4.82;;
16272;SDS011;8244;50.044;9.006;2023-05-02T21:17:42;11.05;;;5.85;;
16272;SDS011;8244;50.044;9.006;2023-05-02T21:22:44;11.77;;;5.00;;
16272;SDS011;8244;50.044;9.006;2023-05-02T21:27:46;10.38;;;4.60;;
16272;SDS011;8244;50.044;9.006;2023-05-02T21:32:48;10.57;;;5.10;;
16272;SDS011;8244;50.044;9.006;2023-05-02T21:37:51;11.45;;;4.63;;
16272;SDS011;8244;50.044;9.006;2023-05-02T21:42:52;9.23;;;5.03;;
16272;SDS011;8244;50.044;9.006;2023-05-02T21:47:54;10.43;;;4.95;;
16272;SDS011;8244;50.044;9.006;2023-05-02T21:52:57;12.65;;;4.75;;
16272;SDS011;8244;50.044;9.006;2023-05-02T21:58:00;9.20;;;5.00;;
16272;SDS011;8244;50.044;9.006;2023-05-02T22:03:02;13.85;;;5.00;;
16272;SDS011;8244;50.044;9.006;2023-05-02T22:08:08;11.02;;;5.47;;
16272;SDS011;8244;50.044;9.006;2023-05-02T22:13:11;10.68;;;5.13;;
16272;SDS011;8244;50.044;9.006;2023-05-02T22:18:14;10.52;;;4.88;;
16272;SDS011;8244;50.044;9.006;2023-05-02T22:23:18;13.35;;;5.03;;
16272;SDS011;8244;50.044;9.006;2023-05-02T22:28:20;11.13;;;5.03;;
16272;SDS011;8244;50.044;9.006;2023-05-02T22:33:21;10.55;;;4.25;;
16272;SDS011;8244;50.044;9.006;2023-05-02T22:38:25;7.80;;;4.50;;
16272;SDS011;8244;50.044;9.006;2023-05-02T22:43:26;10.75;;;4.70;;
16272;SDS011;8244;50.044;9.006;2023-05-02T22:48:28;10.43;;;4.93;;
16272;SDS011;8244;50.044;9.006;2023-05-02T22:53:31;12.07;;;5.47;;
16272;SDS011;8244;50.044;9.006;2023-05-02T22:58:34;9.82;;;5.40;;
16272;SDS011;8244;50.044;9.006;2023-05-02T23:03:35;12.55;;;5.22;;
16272;SDS011;8244;50.044;9.006;2023-05-02T23:08:39;12.48;;;5.45;;
16272;SDS011;8244;50.044;9.006;2023-05-02T23:13:40;11.75;;;5.72;;
16272;SDS011;8244;50.044;9.006;2023-05-02T23:18:42;10.48;;;4.78;;
16272;SDS011;8244;50.044;9.006;2023-05-02T23:23:45;10.55;;;5.18;;
16272;SDS011;8244;50.044;9.006;2023-05-02T23:28:46;10.10;;;5.38;;
16272;SDS011;8244;50.044;9.006;2023-05-02T23:33:48;12.73;;;5.85;;
16272;SDS011;8244;50.044;9.006;2023-05-02T23:38:51;11.13;;;5.60;;
16272;SDS011;8244;50.044;9.006;2023-05-02T23:43:53;13.93;;;5.40;;
16272;SDS011;8244;50.044;9.006;2023-05-02T23:48:54;11.18;;;5.47;;
16272;SDS011;8244;50.044;9.006;2023-05-02T23:53:57;13.40;;;6.03;;
16272;SDS011;8244;50.044;9.006;2023-05-02T23:58:59;12.07;;;5.60;;
